Time;durP1;ratioP1;P1;durP2;ratioP2;P2;SDS_P1;SDS_P2;PMS_P1;PMS_P2;Temp;Humidity;BMP_temperature;BMP_pressure;BME280_temperature;BME280_humidity;BME280_pressure;Samples;Min_cycle;Max_cycle;Signal;HPM_P1;HPM_P2
2021/05/14 00:02:14;;;;;;;;;;;;;;;7.21;100.00;98487.31;5056144;28;19938;-80
2021/05/14 00:04:42;;;;;;;;;;;;;;;7.23;100.00;98484.09;5056354;28;20308;-80
2021/05/14 00:07:18;;;;;;;;;;;;;;;7.27;100.00;98491.19;5038936;28;19931;-80
2021/05/14 00:09:45;;;;;;;;;;;;;;;7.31;100.00;98482.84;5056159;28;19936;-80
2021/05/14 00:12:12;;;;;;;;;;;;;;;7.33;100.00;98489.53;5054519;28;20384;-80
2021/05/14 00:14:39;;;;;;;;;;;;;;;7.30;100.00;98489.56;5038083;28;20301;-80
2021/05/14 00:17:06;;;;;;;;;;;;;;;7.46;100.00;98492.56;5054216;28;20388;-80
2021/05/14 00:19:34;;;;;;;;;;;;;;;7.46;100.00;98487.00;5054655;28;20400;-80
2021/05/14 00:22:01;;;;;;;;;;;;;;;7.38;100.00;98489.09;5055768;28;20457;-80
2021/05/14 00:24:28;;;;;;;;;;;;;;;7.34;100.00;98484.78;5054335;28;20379;-79
2021/05/14 00:26:55;;;;;;;;;;;;;;;7.37;100.00;98489.50;5037933;28;20291;-80
2021/05/14 00:29:22;;;;;;;;;;;;;;;7.39;100.00;98495.44;5055364;28;19928;-79
2021/05/14 00:31:49;;;;;;;;;;;;;;;7.15;100.00;98493.72;5055552;28;20300;-80
2021/05/14 00:34:17;;;;;;;;;;;;;;;7.20;100.00;98487.72;5055360;28;20097;-80
2021/05/14 00:36:44;;;;;;;;;;;;;;;7.25;100.00;98488.03;5055505;28;20331;-80
2021/05/14 00:39:11;;;;;;;;;;;;;;;7.10;100.00;98488.63;5055421;28;20411;-80
2021/05/14 00:41:38;;;;;;;;;;;;;;;7.01;100.00;98482.78;5055067;28;20388;-80
2021/05/14 00:44:25;;;;;;;;;;;;;;;6.95;100.00;98476.88;5053928;28;19967;-79
2021/05/14 00:46:52;;;;;;;;;;;;;;;6.88;100.00;98476.16;5035845;28;19925;-80
2021/05/14 00:49:20;;;;;;;;;;;;;;;6.85;100.00;98463.91;5053909;28;19928;-80
2021/05/14 00:51:47;;;;;;;;;;;;;;;6.82;100.00;98473.06;5054925;28;19925;-80
2021/05/14 00:54:18;;;;;;;;;;;;;;;6.86;100.00;98475.81;5037306;28;19925;-80
2021/05/14 00:56:45;;;;;;;;;;;;;;;6.90;100.00;98476.56;5070224;28;19932;-80
2021/05/14 00:59:13;;;;;;;;;;;;;;;6.90;100.00;98480.13;5055026;28;19972;-80
2021/05/14 01:01:40;;;;;;;;;;;;;;;6.90;100.00;98487.66;5053986;28;19931;-81
2021/05/14 01:04:07;;;;;;;;;;;;;;;6.77;100.00;98478.28;5053739;28;19925;-80
2021/05/14 01:06:34;;;;;;;;;;;;;;;6.78;100.00;98477.88;5053416;28;19966;-80
2021/05/14 01:09:02;;;;;;;;;;;;;;;6.79;100.00;98485.00;5036902;28;19932;-80
2021/05/14 01:11:29;;;;;;;;;;;;;;;6.86;100.00;98492.47;5047560;28;19925;-80
2021/05/14 01:13:57;;;;;;;;;;;;;;;6.86;100.00;98484.91;5054629;28;20075;-80
2021/05/14 01:16:24;;;;;;;;;;;;;;;6.83;100.00;98487.75;5054730;28;19925;-80
2021/05/14 01:18:52;;;;;;;;;;;;;;;6.78;100.00;98482.63;5053399;28;19932;-80
2021/05/14 01:21:20;;;;;;;;;;;;;;;6.76;100.00;98485.03;5054370;28;19986;-80
2021/05/14 01:23:47;;;;;;;;;;;;;;;6.66;100.00;98483.94;5054701;28;20387;-80
2021/05/14 01:26:16;;;;;;;;;;;;;;;6.63;100.00;98484.78;5053216;28;20023;-81
2021/05/14 01:28:43;;;;;;;;;;;;;;;6.64;100.00;98497.44;5036852;28;19928;-80
2021/05/14 01:31:10;;;;;;;;;;;;;;;6.61;100.00;98503.00;5053262;28;19925;-80
2021/05/14 01:33:38;;;;;;;;;;;;;;;6.63;100.00;98497.84;5020305;28;19924;-80
2021/05/14 01:36:06;;;;;;;;;;;;;;;6.65;100.00;98503.78;5054330;28;19933;-80
2021/05/14 01:38:34;;;;;;;;;;;;;;;6.68;100.00;98505.75;5082390;28;19925;-80
2021/05/14 01:41:02;;;;;;;;;;;;;;;6.76;100.00;98505.25;5052898;28;19982;-80
2021/05/14 01:43:29;;;;;;;;;;;;;;;6.73;100.00;98508.84;5054417;28;20263;-80
2021/05/14 01:45:57;;;;;;;;;;;;;;;6.71;100.00;98510.47;5054346;28;20496;-80
2021/05/14 01:48:24;;;;;;;;;;;;;;;6.70;100.00;98506.09;5036278;28;19925;-80
2021/05/14 01:50:51;;;;;;;;;;;;;;;6.84;100.00;98505.97;5053054;28;20269;-81
2021/05/14 01:53:18;;;;;;;;;;;;;;;6.91;100.00;98505.88;5052931;28;20383;-80
2021/05/14 01:55:45;;;;;;;;;;;;;;;6.93;100.00;98503.50;5054012;28;20047;-80
2021/05/14 01:58:13;;;;;;;;;;;;;;;6.89;100.00;98508.31;5052598;28;19964;-81
2021/05/14 02:00:40;;;;;;;;;;;;;;;6.87;100.00;98502.38;5053998;28;19925;-81
2021/05/14 02:03:07;;;;;;;;;;;;;;;6.98;100.00;98500.28;5041937;28;19931;-81
2021/05/14 02:05:34;;;;;;;;;;;;;;;6.97;100.00;98504.25;5061650;28;19924;-81
2021/05/14 02:08:01;;;;;;;;;;;;;;;6.89;100.00;98502.75;5072137;28;19924;-80
2021/05/14 02:10:28;;;;;;;;;;;;;;;6.76;100.00;98499.72;5072725;28;20015;-80
2021/05/14 02:12:55;;;;;;;;;;;;;;;6.68;100.00;98502.97;5074016;28;19936;-81
2021/05/14 02:15:23;;;;;;;;;;;;;;;6.69;100.00;98487.88;5073889;28;19931;-81
2021/05/14 02:17:50;;;;;;;;;;;;;;;6.65;100.00;98482.34;5059441;28;19978;-81
2021/05/14 02:20:17;;;;;;;;;;;;;;;6.61;100.00;98483.59;5072638;28;19924;-81
2021/05/14 02:22:45;;;;;;;;;;;;;;;6.76;100.00;98487.81;5072642;28;20005;-80
2021/05/14 02:25:12;;;;;;;;;;;;;;;6.74;100.00;98490.22;5064016;28;19924;-81
2021/05/14 02:27:39;;;;;;;;;;;;;;;6.83;100.00;98494.06;5084300;28;19924;-81
2021/05/14 02:30:07;;;;;;;;;;;;;;;6.84;100.00;98497.66;5089418;28;19948;-81
2021/05/14 02:32:34;;;;;;;;;;;;;;;6.75;100.00;98486.22;5073709;28;19924;-81
2021/05/14 02:35:02;;;;;;;;;;;;;;;6.75;100.00;98500.13;5059875;28;20396;-81
2021/05/14 02:37:30;;;;;;;;;;;;;;;6.74;100.00;98495.78;5072168;28;19925;-81
2021/05/14 02:40:22;;;;;;;;;;;;;;;6.65;100.00;98492.69;5072377;28;19925;-80
2021/05/14 02:42:50;;;;;;;;;;;;;;;6.57;100.00;98493.94;5073769;28;19924;-81
2021/05/14 02:45:17;;;;;;;;;;;;;;;6.52;100.00;98486.06;5067436;28;19925;-81
2021/05/14 02:47:45;;;;;;;;;;;;;;;6.61;100.00;98483.59;5036007;28;19932;-81
2021/05/14 02:50:12;;;;;;;;;;;;;;;6.47;100.00;98480.94;5071525;28;19967;-81
2021/05/14 02:52:39;;;;;;;;;;;;;;;6.36;100.00;98480.25;5062748;28;19925;-81
2021/05/14 02:55:07;;;;;;;;;;;;;;;6.33;100.00;98487.41;5051999;28;19968;-81
2021/05/14 02:57:35;;;;;;;;;;;;;;;6.25;100.00;98476.78;5035925;28;20384;-81
2021/05/14 03:00:06;;;;;;;;;;;;;;;6.31;100.00;98484.25;5068361;28;19978;-81
2021/05/14 03:02:34;;;;;;;;;;;;;;;6.20;100.00;98485.53;5072292;28;20030;-80
2021/05/14 03:05:01;;;;;;;;;;;;;;;6.17;100.00;98486.34;5056031;28;20074;-81
2021/05/14 03:07:29;;;;;;;;;;;;;;;6.13;100.00;98488.38;5072504;28;19932;-81
2021/05/14 03:09:56;;;;;;;;;;;;;;;6.13;100.00;98486.38;5072431;28;19928;-81
2021/05/14 03:12:23;;;;;;;;;;;;;;;6.21;100.00;98484.34;5069606;28;20020;-81
2021/05/14 03:14:50;;;;;;;;;;;;;;;6.32;100.00;98496.13;5078545;28;19924;-81
2021/05/14 03:17:17;;;;;;;;;;;;;;;6.31;100.00;98494.56;5071340;28;19932;-81
2021/05/14 03:19:44;;;;;;;;;;;;;;;6.34;100.00;98496.53;5072384;28;19924;-81
2021/05/14 03:22:12;;;;;;;;;;;;;;;6.36;100.00;98492.13;5069906;28;20381;-80
2021/05/14 03:24:39;;;;;;;;;;;;;;;6.47;100.00;98494.81;5077145;28;19940;-80
2021/05/14 03:27:06;;;;;;;;;;;;;;;6.50;100.00;98505.88;5059252;28;19929;-80
2021/05/14 03:29:33;;;;;;;;;;;;;;;6.46;100.00;98512.66;5075300;28;20494;-80
2021/05/14 03:32:03;;;;;;;;;;;;;;;6.47;100.00;98503.94;5077096;28;20007;-80
2021/05/14 03:34:30;;;;;;;;;;;;;;;6.54;100.00;98498.31;5075708;28;19963;-80
2021/05/14 03:36:58;;;;;;;;;;;;;;;6.33;100.00;98494.94;5066842;28;19932;-80
2021/05/14 03:39:26;;;;;;;;;;;;;;;6.23;100.00;98496.59;5072872;28;19925;-80
2021/05/14 03:42:06;;;;;;;;;;;;;;;6.30;100.00;98498.53;5068352;28;19925;-80
2021/05/14 03:44:33;;;;;;;;;;;;;;;6.27;100.00;98504.91;5072707;28;19924;-81
2021/05/14 03:47:03;;;;;;;;;;;;;;;6.40;100.00;98515.09;5067193;28;19924;-81
2021/05/14 03:49:30;;;;;;;;;;;;;;;6.48;100.00;98516.59;5070520;28;20045;-80
2021/05/14 03:51:57;;;;;;;;;;;;;;;6.43;100.00;98516.25;5092208;28;19924;-80
2021/05/14 03:54:25;;;;;;;;;;;;;;;6.45;100.00;98509.09;5075420;28;19925;-81
2021/05/14 03:56:52;;;;;;;;;;;;;;;6.41;100.00;98513.91;5075053;28;19931;-80
2021/05/14 03:59:19;;;;;;;;;;;;;;;6.43;100.00;98516.25;5074870;28;20371;-80
2021/05/14 04:01:46;;;;;;;;;;;;;;;6.52;100.00;98522.13;5058471;28;19970;-80
2021/05/14 04:04:14;;;;;;;;;;;;;;;6.49;100.00;98523.75;5075295;28;20007;-81
2021/05/14 04:06:41;;;;;;;;;;;;;;;6.47;100.00;98519.78;5074695;28;19929;-81
2021/05/14 04:09:08;;;;;;;;;;;;;;;6.42;100.00;98514.69;5075100;28;19934;-81
2021/05/14 04:16:50;;;;;;;;;;;;;;;6.48;100.00;98505.50;5076047;28;19924;-81
2021/05/14 04:19:18;;;;;;;;;;;;;;;6.49;100.00;98511.84;5080274;28;19924;-81
2021/05/14 04:21:45;;;;;;;;;;;;;;;6.54;100.00;98514.19;5057129;28;19932;-81
2021/05/14 04:24:12;;;;;;;;;;;;;;;6.60;100.00;98512.56;5057060;28;20403;-80
2021/05/14 04:26:39;;;;;;;;;;;;;;;6.66;100.00;98510.91;5074873;28;20375;-82
2021/05/14 04:29:07;;;;;;;;;;;;;;;6.65;100.00;98509.34;5071989;28;20338;-81
2021/05/14 04:31:58;;;;;;;;;;;;;;;6.56;100.00;98512.56;5063095;28;19932;-82
2021/05/14 04:34:27;;;;;;;;;;;;;;;6.63;100.00;98506.97;5059702;28;20011;-81
2021/05/14 04:36:59;;;;;;;;;;;;;;;6.68;100.00;98508.53;5074770;28;19937;-81
2021/05/14 04:39:26;;;;;;;;;;;;;;;6.70;100.00;98500.56;5072993;28;20299;-81
2021/05/14 04:41:53;;;;;;;;;;;;;;;6.78;100.00;98508.41;5056721;28;19964;-81
2021/05/14 04:44:21;;;;;;;;;;;;;;;6.77;100.00;98506.81;5038430;28;19932;-81
2021/05/14 04:46:48;;;;;;;;;;;;;;;6.91;100.00;98525.34;5056161;28;19925;-81
2021/05/14 04:49:15;;;;;;;;;;;;;;;6.87;100.00;98521.81;5037734;28;19924;-81
2021/05/14 04:51:42;;;;;;;;;;;;;;;6.87;100.00;98528.16;5055900;28;19925;-81
2021/05/14 04:54:09;;;;;;;;;;;;;;;6.99;100.00;98530.41;5054093;28;19931;-81
2021/05/14 04:56:37;;;;;;;;;;;;;;;6.99;100.00;98524.06;5054707;28;19929;-81
2021/05/14 04:59:04;;;;;;;;;;;;;;;7.01;100.00;98528.00;5054096;28;19932;-81
2021/05/14 05:01:31;;;;;;;;;;;;;;;6.92;100.00;98536.03;5055819;28;19925;-81
2021/05/14 05:03:58;;;;;;;;;;;;;;;6.89;100.00;98536.84;5054647;28;19932;-81
2021/05/14 05:06:25;;;;;;;;;;;;;;;6.87;100.00;98530.94;5071721;28;20372;-81
2021/05/14 05:08:53;;;;;;;;;;;;;;;6.90;100.00;98532.09;5056040;28;19929;-81
2021/05/14 05:11:20;;;;;;;;;;;;;;;6.87;100.00;98530.16;5055564;28;20019;-81
2021/05/14 05:13:47;;;;;;;;;;;;;;;6.77;100.00;98531.03;5051228;28;19935;-81
2021/05/14 05:16:14;;;;;;;;;;;;;;;6.77;100.00;98539.38;5060902;28;19982;-81
2021/05/14 05:18:42;;;;;;;;;;;;;;;6.79;100.00;98537.75;5073313;28;20023;-81
2021/05/14 05:21:09;;;;;;;;;;;;;;;6.79;100.00;98539.72;5090075;28;19925;-81
2021/05/14 05:23:36;;;;;;;;;;;;;;;6.80;100.00;98538.56;5073594;28;19924;-81
2021/05/14 05:26:03;;;;;;;;;;;;;;;6.78;100.00;98543.72;5069180;28;19925;-81
2021/05/14 05:28:32;;;;;;;;;;;;;;;6.74;100.00;98545.75;5064820;28;20013;-81
2021/05/14 05:30:59;;;;;;;;;;;;;;;6.89;100.00;98552.75;5059522;28;19924;-81
2021/05/14 05:33:27;;;;;;;;;;;;;;;6.88;100.00;98556.69;5074461;28;19974;-82
2021/05/14 05:35:55;;;;;;;;;;;;;;;6.95;100.00;98557.44;5089882;28;19958;-81
2021/05/14 05:38:26;;;;;;;;;;;;;;;6.97;100.00;98554.22;5073162;28;20020;-81
2021/05/14 05:40:54;;;;;;;;;;;;;;;7.03;100.00;98553.38;5088930;28;19934;-81
2021/05/14 05:43:21;;;;;;;;;;;;;;;7.05;100.00;98552.97;5055083;28;19963;-77
2021/05/14 05:45:49;;;;;;;;;;;;;;;6.95;100.00;98554.66;5053846;28;20023;-82
2021/05/14 05:48:17;;;;;;;;;;;;;;;7.02;100.00;98567.69;5071671;28;20011;-82
2021/05/14 05:50:46;;;;;;;;;;;;;;;6.98;100.00;98566.94;5064071;28;19963;-82
2021/05/14 05:53:15;;;;;;;;;;;;;;;6.96;100.00;98564.56;5036204;28;19925;-79
2021/05/14 05:55:42;;;;;;;;;;;;;;;6.97;100.00;98566.13;5063576;28;19924;-83
2021/05/14 05:58:14;;;;;;;;;;;;;;;7.12;100.00;98566.78;5031177;28;19929;-84
2021/05/14 06:00:42;;;;;;;;;;;;;;;7.04;100.00;98574.41;5030158;28;19925;-86
2021/05/14 06:03:11;;;;;;;;;;;;;;;6.95;100.00;98568.53;5029922;28;20374;-84
2021/05/14 06:05:38;;;;;;;;;;;;;;;6.85;100.00;98574.19;5054131;28;19925;-83
2021/05/14 06:08:06;;;;;;;;;;;;;;;6.81;100.00;98574.25;5036580;28;19924;-82
2021/05/14 06:10:33;;;;;;;;;;;;;;;6.90;100.00;98576.53;5056755;28;20753;-84
2021/05/14 06:13:00;;;;;;;;;;;;;;;7.03;100.00;98577.59;5041823;28;19978;-84
2021/05/14 06:15:27;;;;;;;;;;;;;;;7.06;100.00;98585.91;5069700;28;19974;-83
2021/05/14 06:17:55;;;;;;;;;;;;;;;7.05;100.00;98577.97;5062752;28;19932;-88
2021/05/14 06:20:24;;;;;;;;;;;;;;;7.01;100.00;98580.78;5063108;28;20024;-89
2021/05/14 06:22:52;;;;;;;;;;;;;;;6.91;100.00;98583.66;5031329;28;20002;-90
2021/05/14 06:25:19;;;;;;;;;;;;;;;7.02;100.00;98589.91;5033369;28;19929;-90
2021/05/14 06:27:47;;;;;;;;;;;;;;;6.96;100.00;98588.78;5030277;28;20322;-82
2021/05/14 06:30:14;;;;;;;;;;;;;;;7.07;100.00;98586.69;5069714;28;19964;-82
2021/05/14 06:32:41;;;;;;;;;;;;;;;7.00;100.00;98575.63;5072270;28;19964;-82
2021/05/14 06:35:08;;;;;;;;;;;;;;;7.01;100.00;98589.09;5072579;28;19925;-82
2021/05/14 06:37:37;;;;;;;;;;;;;;;7.05;100.00;98584.31;5058500;28;20316;-81
2021/05/14 06:40:06;;;;;;;;;;;;;;;7.06;100.00;98585.09;5068991;28;19925;-82
2021/05/14 06:42:33;;;;;;;;;;;;;;;7.06;100.00;98582.31;5016161;28;20032;-80
2021/05/14 06:45:00;;;;;;;;;;;;;;;6.99;100.00;98594.31;5060880;28;19924;-80
2021/05/14 06:47:27;;;;;;;;;;;;;;;6.97;100.00;98593.13;5073072;28;19975;-81
2021/05/14 06:49:54;;;;;;;;;;;;;;;7.03;100.00;98577.59;5073107;28;19925;-81
2021/05/14 06:52:21;;;;;;;;;;;;;;;7.02;100.00;98570.47;5090087;28;19924;-81
2021/05/14 06:54:49;;;;;;;;;;;;;;;7.08;100.00;98571.59;5075593;28;20563;-81
2021/05/14 06:57:16;;;;;;;;;;;;;;;7.11;100.00;98563.22;5076750;28;20406;-79
2021/05/14 06:59:45;;;;;;;;;;;;;;;7.30;100.00;98572.94;5075539;28;19994;-82
2021/05/14 07:02:12;;;;;;;;;;;;;;;7.27;100.00;98568.22;5066147;28;19932;-81
2021/05/14 07:04:39;;;;;;;;;;;;;;;7.42;100.00;98575.22;5076877;28;19924;-81
2021/05/14 07:07:07;;;;;;;;;;;;;;;7.50;100.00;98567.59;5069494;28;19925;-81
2021/05/14 07:09:34;;;;;;;;;;;;;;;7.37;100.00;98572.88;5070577;28;19924;-81
2021/05/14 07:12:02;;;;;;;;;;;;;;;7.24;100.00;98564.28;5061286;28;20387;-81
2021/05/14 07:14:29;;;;;;;;;;;;;;;7.27;100.00;98565.44;5069697;28;19925;-81
2021/05/14 07:16:57;;;;;;;;;;;;;;;7.25;100.00;98559.50;5056553;28;20071;-91
2021/05/14 07:19:26;;;;;;;;;;;;;;;7.33;100.00;98563.78;5066665;28;19925;-82
2021/05/14 07:21:54;;;;;;;;;;;;;;;7.34;100.00;98562.59;5064623;28;19924;-81
2021/05/14 07:24:23;;;;;;;;;;;;;;;7.42;100.00;98560.53;5076737;28;19925;-81
2021/05/14 07:26:50;;;;;;;;;;;;;;;7.42;100.00;98569.66;5070639;28;19948;-81
2021/05/14 07:29:17;;;;;;;;;;;;;;;7.41;100.00;98562.50;5074053;28;19928;-81
2021/05/14 07:31:44;;;;;;;;;;;;;;;7.82;100.00;98557.63;5076829;28;19928;-81
2021/05/14 07:34:11;;;;;;;;;;;;;;;8.19;100.00;98556.72;5058179;28;19924;-82
2021/05/14 07:36:39;;;;;;;;;;;;;;;8.27;100.00;98544.31;5075943;28;20409;-82
2021/05/14 07:39:06;;;;;;;;;;;;;;;8.32;100.00;98543.81;5058739;28;20310;-82
2021/05/14 07:41:33;;;;;;;;;;;;;;;8.56;100.00;98548.22;5092098;28;19950;-83
2021/05/14 07:44:00;;;;;;;;;;;;;;;8.93;100.00;98607.31;5075283;28;20284;-82
2021/05/14 07:46:27;;;;;;;;;;;;;;;9.39;100.00;98605.69;5076310;28;20537;-82
2021/05/14 07:48:54;;;;;;;;;;;;;;;9.65;100.00;98602.03;5073992;28;19946;-84
2021/05/14 07:51:21;;;;;;;;;;;;;;;9.69;100.00;98592.38;5063328;28;19928;-85
2021/05/14 07:53:49;;;;;;;;;;;;;;;9.99;100.00;98585.75;5063327;28;19925;-85
2021/05/14 07:56:16;;;;;;;;;;;;;;;10.04;100.00;98585.25;5067884;28;20292;-85
2021/05/14 07:58:43;;;;;;;;;;;;;;;10.08;100.00;98575.63;5037968;28;19925;-85
2021/05/14 08:01:11;;;;;;;;;;;;;;;10.18;100.00;98562.63;5054546;28;20339;-84
2021/05/14 08:03:38;;;;;;;;;;;;;;;10.24;100.00;98552.53;5034050;28;20444;-85
2021/05/14 08:06:05;;;;;;;;;;;;;;;10.36;100.00;98535.13;5041981;28;20295;-88
2021/05/14 08:08:37;;;;;;;;;;;;;;;9.98;100.00;98514.44;5091643;28;20019;-85
2021/05/14 08:11:05;;;;;;;;;;;;;;;10.01;100.00;98507.97;5052729;28;20518;-86
2021/05/14 08:13:32;;;;;;;;;;;;;;;10.12;100.00;98500.16;5053691;28;20341;-86
2021/05/14 08:15:59;;;;;;;;;;;;;;;10.11;100.00;98498.59;5068294;28;20023;-85
2021/05/14 08:18:28;;;;;;;;;;;;;;;9.86;100.00;98492.78;5072300;28;19925;-86
2021/05/14 08:20:55;;;;;;;;;;;;;;;9.64;100.00;98491.66;5027264;28;20375;-86
2021/05/14 08:23:22;;;;;;;;;;;;;;;9.70;100.00;98498.28;5081206;28;19940;-85
2021/05/14 08:25:49;;;;;;;;;;;;;;;9.70;100.00;98487.94;5067021;28;19986;-85
2021/05/14 08:28:17;;;;;;;;;;;;;;;9.99;100.00;98490.88;5038139;28;19925;-91
2021/05/14 08:30:45;;;;;;;;;;;;;;;10.04;100.00;98490.38;5047986;28;19952;-77
2021/05/14 08:33:12;;;;;;;;;;;;;;;10.17;100.00;98485.69;5049004;28;19931;-93
2021/05/14 08:35:40;;;;;;;;;;;;;;;10.14;100.00;98478.19;5044099;28;19972;-82
2021/05/14 08:38:08;;;;;;;;;;;;;;;10.11;100.00;98477.06;5066716;28;19933;-83
2021/05/14 08:40:37;;;;;;;;;;;;;;;9.53;100.00;98469.56;5054552;28;20360;-81
2021/05/14 08:43:06;;;;;;;;;;;;;;;9.52;100.00;98470.78;5054406;28;19925;-83
2021/05/14 08:45:34;;;;;;;;;;;;;;;9.81;100.00;98465.38;5037959;28;20389;-82
2021/05/14 08:48:01;;;;;;;;;;;;;;;10.10;100.00;98457.97;5052172;28;19932;-82
2021/05/14 08:50:31;;;;;;;;;;;;;;;9.86;100.00;98462.84;5053298;28;20536;-82
2021/05/14 08:52:58;;;;;;;;;;;;;;;9.76;100.00;98463.09;5038208;28;20299;-90
2021/05/14 08:55:25;;;;;;;;;;;;;;;9.54;100.00;98456.41;5015386;28;20491;-91
2021/05/14 08:57:52;;;;;;;;;;;;;;;9.66;100.00;98458.53;5025994;28;20000;-91
2021/05/14 09:00:20;;;;;;;;;;;;;;;9.90;100.00;98457.19;5042222;28;19925;-91
2021/05/14 09:02:47;;;;;;;;;;;;;;;9.97;100.00;98448.66;5018643;28;19939;-92
2021/05/14 09:05:21;;;;;;;;;;;;;;;10.21;100.00;98450.88;5036622;28;19932;-83
2021/05/14 09:07:48;;;;;;;;;;;;;;;9.86;100.00;98457.25;5032732;28;19925;-90
2021/05/14 09:10:15;;;;;;;;;;;;;;;10.18;100.00;98445.38;5032241;28;20001;-88
2021/05/14 09:12:43;;;;;;;;;;;;;;;9.94;100.00;98446.72;5037072;28;19925;-88
2021/05/14 09:15:21;;;;;;;;;;;;;;;9.99;100.00;98449.00;5050050;28;19974;-88
2021/05/14 09:18:01;;;;;;;;;;;;;;;9.74;100.00;98449.56;5019675;28;19936;-90
2021/05/14 09:20:29;;;;;;;;;;;;;;;9.86;100.00;98439.75;5050044;28;19924;-88
2021/05/14 09:22:57;;;;;;;;;;;;;;;9.81;100.00;98446.63;5053357;28;19929;-89
2021/05/14 09:25:24;;;;;;;;;;;;;;;10.12;100.00;98441.53;5017863;28;19932;-89
2021/05/14 09:27:51;;;;;;;;;;;;;;;10.15;100.00;98440.66;5041933;28;19924;-82
2021/05/14 09:30:19;;;;;;;;;;;;;;;10.09;100.00;98432.03;5060411;28;20018;-83
2021/05/14 09:32:46;;;;;;;;;;;;;;;9.62;100.00;98438.31;5049814;28;19925;-83
2021/05/14 09:35:13;;;;;;;;;;;;;;;9.61;100.00;98443.09;5051770;28;19925;-90
2021/05/14 09:37:48;;;;;;;;;;;;;;;9.83;100.00;98435.81;5067681;28;20372;-87
2021/05/14 09:40:19;;;;;;;;;;;;;;;9.71;100.00;98441.28;5035558;28;19925;-89
2021/05/14 09:42:47;;;;;;;;;;;;;;;9.84;100.00;98431.81;5034528;28;20410;-89
2021/05/14 09:45:19;;;;;;;;;;;;;;;10.02;100.00;98431.41;5033809;28;19947;-89
2021/05/14 09:47:57;;;;;;;;;;;;;;;10.27;100.00;98440.75;5056968;28;20368;-94
2021/05/14 09:50:29;;;;;;;;;;;;;;;10.46;100.00;98439.09;5055542;28;19931;-93
2021/05/14 09:53:04;;;;;;;;;;;;;;;10.37;100.00;98438.94;5028636;28;20376;-90
2021/05/14 09:55:31;;;;;;;;;;;;;;;10.29;100.00;98443.13;5042459;28;19952;-85
2021/05/14 09:58:02;;;;;;;;;;;;;;;10.29;100.00;98434.75;4999608;28;19928;-85
2021/05/14 10:00:30;;;;;;;;;;;;;;;10.40;100.00;98432.47;5032878;28;19925;-89
2021/05/14 10:02:58;;;;;;;;;;;;;;;10.57;100.00;98437.59;5033567;28;20377;-90
2021/05/14 10:05:25;;;;;;;;;;;;;;;10.02;100.00;98436.97;5034016;28;20297;-85
2021/05/14 10:07:52;;;;;;;;;;;;;;;9.97;100.00;98440.28;5015998;28;20356;-87
2021/05/14 10:10:21;;;;;;;;;;;;;;;10.26;100.00;98442.00;5073075;28;19932;-82
2021/05/14 10:12:49;;;;;;;;;;;;;;;10.46;100.00;98439.09;5068188;28;19970;-85
2021/05/14 10:15:16;;;;;;;;;;;;;;;10.55;100.00;98430.91;5033094;28;19925;-88
2021/05/14 10:17:50;;;;;;;;;;;;;;;10.73;100.00;98429.22;5064832;28;19970;-86
2021/05/14 10:20:19;;;;;;;;;;;;;;;10.86;100.00;98423.66;5034469;28;20011;-86
2021/05/14 10:22:49;;;;;;;;;;;;;;;10.96;100.00;98420.56;5051370;28;19925;-90
2021/05/14 10:25:35;;;;;;;;;;;;;;;10.82;100.00;98422.97;5035447;28;19926;-89
2021/05/14 10:28:06;;;;;;;;;;;;;;;10.80;100.00;98417.03;5035280;28;20296;-92
2021/05/14 10:30:34;;;;;;;;;;;;;;;10.76;100.00;98421.94;5036935;28;20326;-81
2021/05/14 10:33:02;;;;;;;;;;;;;;;10.88;100.00;98422.00;5021213;28;19932;-89
2021/05/14 10:35:30;;;;;;;;;;;;;;;10.78;100.00;98413.94;5034136;28;19925;-91
2021/05/14 10:37:57;;;;;;;;;;;;;;;10.76;100.00;98408.78;5036189;28;19991;-90
2021/05/14 10:40:31;;;;;;;;;;;;;;;10.88;100.00;98415.63;5063056;28;19924;-85
2021/05/14 10:43:12;;;;;;;;;;;;;;;11.16;100.00;98419.66;5054988;28;20322;-89
2021/05/14 10:45:41;;;;;;;;;;;;;;;10.64;100.00;98417.09;5062954;28;19924;-84
2021/05/14 10:48:18;;;;;;;;;;;;;;;10.54;100.00;98418.94;5033319;28;19975;-89
2021/05/14 10:50:45;;;;;;;;;;;;;;;10.44;100.00;98419.19;5049640;28;20419;-89
2021/05/14 10:53:19;;;;;;;;;;;;;;;10.27;100.00;98417.66;5032898;28;20058;-89
2021/05/14 10:55:46;;;;;;;;;;;;;;;10.10;100.00;98410.50;5041355;28;20286;-88
2021/05/14 10:58:33;;;;;;;;;;;;;;;10.08;100.00;98396.19;5045860;28;19951;-87
2021/05/14 11:01:00;;;;;;;;;;;;;;;10.31;100.00;98399.59;5045775;28;20011;-86
2021/05/14 11:03:34;;;;;;;;;;;;;;;10.26;100.00;98402.91;5033716;28;19935;-88
2021/05/14 11:06:08;;;;;;;;;;;;;;;10.18;100.00;98400.72;5057025;28;20082;-88
2021/05/14 11:08:35;;;;;;;;;;;;;;;10.32;100.00;98403.16;5049576;28;19924;-89
2021/05/14 11:11:12;;;;;;;;;;;;;;;10.54;100.00;98401.41;5057474;28;19925;-88
2021/05/14 11:13:42;;;;;;;;;;;;;;;10.38;100.00;98399.41;5066538;28;20013;-89
2021/05/14 11:16:28;;;;;;;;;;;;;;;10.48;100.00;98391.97;5073241;28;20280;-88
2021/05/14 11:18:55;;;;;;;;;;;;;;;10.52;100.00;98387.88;5041041;28;20376;-90
2021/05/14 11:21:42;;;;;;;;;;;;;;;10.43;100.00;98400.88;5052938;28;19931;-91
2021/05/14 11:24:10;;;;;;;;;;;;;;;10.57;100.00;98401.28;5054079;28;19925;-88
2021/05/14 11:26:37;;;;;;;;;;;;;;;10.21;100.00;98394.25;5060932;28;19975;-90
2021/05/14 11:29:04;;;;;;;;;;;;;;;10.56;100.00;98388.56;5033994;28;19932;-84
2021/05/14 11:31:31;;;;;;;;;;;;;;;10.92;100.00;98389.16;5056775;28;19999;-83
2021/05/14 11:33:58;;;;;;;;;;;;;;;11.21;100.00;98400.31;5057004;28;20015;-83
2021/05/14 11:36:26;;;;;;;;;;;;;;;11.52;100.00;98397.81;5056882;28;19932;-82
2021/05/14 11:38:54;;;;;;;;;;;;;;;11.75;100.00;98395.53;5046199;28;19925;-83
2021/05/14 11:41:24;;;;;;;;;;;;;;;11.88;100.00;98387.91;5054742;28;19928;-82
2021/05/14 11:44:02;;;;;;;;;;;;;;;11.89;100.00;98383.84;5051335;28;19925;-82
2021/05/14 11:46:33;;;;;;;;;;;;;;;11.16;100.00;98381.31;5057861;28;20005;-82
2021/05/14 11:49:08;;;;;;;;;;;;;;;11.42;100.00;98380.09;5018209;28;19951;-82
2021/05/14 11:51:39;;;;;;;;;;;;;;;11.67;100.00;98382.97;5063273;28;19924;-82
2021/05/14 11:54:09;;;;;;;;;;;;;;;11.73;100.00;98372.00;5042316;28;19982;-82
2021/05/14 11:56:36;;;;;;;;;;;;;;;11.65;100.00;98382.63;5051353;28;19936;-81
2021/05/14 11:59:04;;;;;;;;;;;;;;;11.64;100.00;98375.47;5058124;28;19925;-82
2021/05/14 12:01:38;;;;;;;;;;;;;;;11.69;100.00;98376.94;5057108;28;20015;-82
2021/05/14 12:04:05;;;;;;;;;;;;;;;11.66;100.00;98375.78;5063545;28;19932;-83
2021/05/14 12:06:32;;;;;;;;;;;;;;;11.63;100.00;98381.50;5062167;28;19931;-83
2021/05/14 12:09:10;;;;;;;;;;;;;;;11.20;100.00;98372.78;5056123;28;19925;-83
2021/05/14 12:11:39;;;;;;;;;;;;;;;10.98;100.00;98375.41;5070193;28;20429;-82
2021/05/14 12:14:07;;;;;;;;;;;;;;;10.93;100.00;98373.94;5061925;28;19952;-83
2021/05/14 12:16:37;;;;;;;;;;;;;;;10.90;100.00;98371.25;5075954;28;19974;-83
2021/05/14 12:19:08;;;;;;;;;;;;;;;10.94;100.00;98375.53;5075809;28;19925;-82
2021/05/14 12:21:35;;;;;;;;;;;;;;;10.98;100.00;98369.81;5057557;28;19952;-82
2021/05/14 12:24:13;;;;;;;;;;;;;;;10.96;100.00;98377.88;5058826;28;19974;-83
2021/05/14 12:26:41;;;;;;;;;;;;;;;11.05;100.00;98369.63;5065253;28;20016;-83
2021/05/14 12:29:22;;;;;;;;;;;;;;;10.98;100.00;98375.41;5063377;28;19948;-82
2021/05/14 12:31:54;;;;;;;;;;;;;;;10.82;100.00;98370.69;5021425;28;19940;-83
2021/05/14 12:34:21;;;;;;;;;;;;;;;10.83;100.00;98379.81;5048737;28;20350;-83
2021/05/14 12:36:51;;;;;;;;;;;;;;;10.97;100.00;98373.84;5034803;28;19924;-84
2021/05/14 12:39:20;;;;;;;;;;;;;;;11.10;100.00;98366.31;5050187;28;20395;-83
2021/05/14 12:41:59;;;;;;;;;;;;;;;11.11;100.00;98373.44;5036081;28;19925;-82
2021/05/14 12:44:35;;;;;;;;;;;;;;;11.21;100.00;98366.00;5054014;28;20062;-84
2021/05/14 12:47:10;;;;;;;;;;;;;;;11.10;100.00;98360.72;5041372;28;19925;-84
2021/05/14 12:49:47;;;;;;;;;;;;;;;11.23;100.00;98364.31;5065725;28;19931;-83
2021/05/14 12:52:22;;;;;;;;;;;;;;;11.20;100.00;98365.19;5060644;28;20441;-84
2021/05/14 12:54:56;;;;;;;;;;;;;;;11.17;100.00;98366.09;5070336;28;19932;-83
2021/05/14 12:57:25;;;;;;;;;;;;;;;11.18;100.00;98362.06;5060177;28;19924;-84